Terminal Aerodrome Forecast
Issued by NWS Charleston, WV

Current Version | Previous Version | Text Only | Print | Product List | Glossary Off
Versions: 1 2 3 4 5 6 7 8 9 10 11 12 13 14 15 16 17 18 19 20 21 22 23 24 25 26 27

677
FTUS41 KRLX 171502 AAA
TAFBKW
TAF AMD
KBKW 171502Z 1715/1812 16007KT P6SM -SHRA BKN030 OVC050
     FM172200 23012G18KT P6SM VCSH OVC015
     FM180000 24011G17KT 5SM -SHRA OVC015
     FM180400 27009G15KT P6SM -SHRA OVC015
     FM180700 28008KT P6SM -SHRA BKN006=

USA.gov is the U.S. government's official web portal to all federal, state and local government web resources and services.